Yazd, Iran
Current Conditions -  °F | °C
As of 6:30 AM on Saturday 29 Nov 2014 (Local Time) from OIYY Reporting Station
Few Clouds Few Clouds  
Wind Chill: 40°   Ceiling: Unl
Heat Index: 43°   Visibility: 6mi
Dew Point: 34°   Wind: 5mph
Humidity: 70%   Direction: 260°W
Pressure: 30.18"   Gusts: NA
Location:  31.92°N, 54.37°E
Report Text: OIYY 290230Z 26004KT 9999 FEW100 06/01 Q1022
Loading
Personal Weather Stations






























Interactive Weather Map New forecast layout! Learn more

10-Day Weather Forecast

Advertisements
Track Severe Weather on mobile